AXCGGARGarmin  id=430  GPS 72 Software Version 2.50|3585390455
HFDTE150813
HFPLTPilot:
HFTZOTimezone:2
HFSITSite:
HPGTYGliderType:
HPGIDGliderID:
HFDTM100DATUM:WGS-1984
HFCIDCOMPETITIONID:
HFCCLCOMPETITIONCLASS:
LXCG     ICON:C:\Program Files (x86)\CompeGPS\symbols\IconsPlay\HG.ico
LXCG     COLOR:255000000
LXCG POINTSCOUNT:592
LXCG COORDBOX:-1.976733,37.743455,-1.924089,37.839427
I00
B1612043749607N00156327WA0000000978
B1612193749606N00156316WA0000000978
B1612343749586N00156324WA0000001000
B1612493749611N00156281WA0000001018
B1613043749585N00156333WA0000001036
B1613193749571N00156319WA0000001030
B1613343749601N00156280WA0000001034
B1613493749612N00156259WA0000001033
B1614043749637N00156262WA0000001050
B1614193749612N00156278WA0000001039
B1614343749578N00156286WA0000001075
B1614493749550N00156271WA0000001078
B1615043749522N00156250WA0000001070
B1615193749489N00156225WA0000001062
B1615343749463N00156196WA0000001050
B1615493749441N00156161WA0000001037
B1616043749423N00156128WA0000001027
B1616193749394N00156107WA0000001012
B1616343749371N00156079WA0000000996
B1616493749344N00156054WA0000000982
B1617043749442N00156118WA0000000970
B1617193749511N00156251WA0000000972
B1617343749595N00156290WA0000000978
B1617493749622N00156301WA0000000996
B1618043749629N00156285WA0000001017
B1618193749639N00156281WA0000001022
B1618343749622N00156286WA0000001023
B1618493749596N00156313WA0000001031
B1619043749558N00156353WA0000001055
B1619193749545N00156347WA0000001081
B1619343749532N00156339WA0000001088
B1619493749566N00156293WA0000001069
B1620043749614N00156255WA0000001070
B1620193749603N00156280WA0000001050
B1620343749572N00156314WA0000001037
B1620493749626N00156260WA0000001025
B1621043749599N00156318WA0000001021
B1621193749569N00156335WA0000001027
B1621343749583N00156306WA0000001042
B1621493749607N00156272WA0000001050
B1622043749632N00156304WA0000001051
B1622193749612N00156309WA0000001067
B1622343749596N00156313WA0000001057
B1622493749615N00156272WA0000001069
B1623043749599N00156305WA0000001055
B1623193749609N00156308WA0000001040
B1623343749604N00156329WA0000001035
B1623493749596N00156323WA0000001026
B1624043749627N00156272WA0000001010
B1624193749594N00156334WA0000001008
B1624343749617N00156308WA0000001017
B1624493749608N00156287WA0000001025
B1625043749625N00156309WA0000001032
B1625193749623N00156286WA0000001051
B1625343749595N00156296WA0000001074
B1625493749571N00156286WA0000001084
B1626043749604N00156275WA0000001068
B1626193749629N00156303WA0000001055
B1626343749629N00156287WA0000001051
B1626493749600N00156321WA0000001041
B1627043749617N00156306WA0000001035
B1627193749597N00156328WA0000001035
B1627343749565N00156332WA0000001047
B1627493749562N00156310WA0000001034
B1628043749612N00156306WA0000001029
B1628193749629N00156302WA0000001023
B1628343749595N00156336WA0000001010
B1628493749616N00156312WA0000001006
B1629043749605N00156323WA0000001009
B1629193749600N00156309WA0000001019
B1629343749595N00156304WA0000001029
B1629493749571N00156342WA0000001034
B1630043749550N00156335WA0000001048
B1630193749543N00156324WA0000001058
B1630343749528N00156307WA0000001065
B1630493749497N00156300WA0000001050
B1631043749585N00156273WA0000001040
B1631193749621N00156260WA0000001032
B1631343749618N00156308WA0000001033
B1631493749592N00156316WA0000001030
B1632043749602N00156284WA0000001029
B1632193749672N00156238WA0000001018
B1632343749673N00156206WA0000001036
B1632493749647N00156226WA0000001063
B1633043749640N00156248WA0000001078
B1633193749668N00156193WA0000001077
B1633343749713N00156150WA0000001086
B1633493749758N00156156WA0000001103
B1634043749728N00156151WA0000001112
B1634193749689N00156141WA0000001118
B1634343749665N00156126WA0000001105
B1634493749632N00156126WA0000001100
B1635043749596N00156112WA0000001080
B1635193749626N00156071WA0000001062
B1635343749700N00156031WA0000001080
B1635493749680N00156027WA0000001107
B1636043749639N00156030WA0000001126
B1636193749588N00156034WA0000001151
B1636343749539N00156034WA0000001184
B1636493749493N00156027WA0000001202
B1637043749449N00156021WA0000001214
B1637193749396N00156020WA0000001189
B1637343749342N00156014WA0000001150
B1637493749284N00156039WA0000001146
B1638043749228N00156076WA0000001161
B1638193749179N00156101WA0000001184
B1638343749124N00156129WA0000001169
B1638493749076N00156158WA0000001155
B1639043749034N00156177WA0000001172
B1639193748997N00156193WA0000001156
B1639343748956N00156221WA0000001138
B1639493748910N00156255WA0000001128
B1640043748861N00156294WA0000001135
B1640193748817N00156319WA0000001137
B1640343748776N00156328WA0000001137
B1640493748744N00156328WA0000001136
B1641043748711N00156333WA0000001132
B1641193748670N00156369WA0000001121
B1641343748642N00156374WA0000001126
B1641493748627N00156400WA0000001133
B1642043748605N00156430WA0000001134
B1642193748578N00156444WA0000001135
B1642343748549N00156459WA0000001137
B1642493748518N00156482WA0000001133
B1643043748483N00156531WA0000001131
B1643193748452N00156569WA0000001135
B1643343748431N00156641WA0000001153
B1643493748415N00156715WA0000001169
B1644043748385N00156801WA0000001193
B1644193748354N00156900WA0000001219
B1644343748392N00156887WA0000001235
B1644493748445N00156858WA0000001246
B1645043748465N00156826WA0000001254
B1645193748447N00156906WA0000001253
B1645343748453N00156892WA0000001256
B1645493748469N00156856WA0000001275
B1646043748456N00156881WA0000001280
B1646193748462N00156852WA0000001282
B1646343748429N00156854WA0000001292
B1646493748396N00156845WA0000001288
B1647043748358N00156835WA0000001282
B1647193748324N00156832WA0000001292
B1647343748297N00156832WA0000001304
B1647493748265N00156824WA0000001284
B1648043748225N00156817WA0000001277
B1648193748180N00156807WA0000001272
B1648343748137N00156798WA0000001265
B1648493748103N00156796WA0000001262
B1649043748077N00156798WA0000001259
B1649193748054N00156791WA0000001252
B1649343748023N00156771WA0000001235
B1649493747989N00156767WA0000001219
B1650043747954N00156762WA0000001201
B1650193747913N00156759WA0000001179
B1650343747862N00156755WA0000001161
B1650493747814N00156767WA0000001176
B1651043747776N00156788WA0000001154
B1651193747774N00156755WA0000001122
B1651343747850N00156708WA0000001103
B1651493747947N00156692WA0000001101
B1652043748063N00156708WA0000001098
B1652193748181N00156734WA0000001112
B1652343748277N00156728WA0000001130
B1652493748373N00156740WA0000001159
B1653043748450N00156728WA0000001178
B1653193748427N00156822WA0000001204
B1653343748403N00156828WA0000001228
B1653493748375N00156791WA0000001231
B1654043748345N00156757WA0000001234
B1654193748357N00156815WA0000001220
B1654343748451N00156830WA0000001230
B1654493748468N00156838WA0000001240
B1655043748467N00156895WA0000001249
B1655193748476N00156863WA0000001267
B1655343748454N00156859WA0000001282
B1655493748442N00156851WA0000001287
B1656043748409N00156845WA0000001285
B1656193748373N00156844WA0000001294
B1656343748331N00156844WA0000001300
B1656493748298N00156833WA0000001333
B1657043748259N00156817WA0000001351
B1657193748211N00156808WA0000001351
B1657343748168N00156797WA0000001333
B1657493748130N00156783WA0000001325
B1658043748093N00156763WA0000001319
B1658193748054N00156743WA0000001298
B1658343748016N00156708WA0000001289
B1658493747984N00156685WA0000001287
B1659043747947N00156658WA0000001290
B1659193747907N00156632WA0000001279
B1659343747864N00156611WA0000001268
B1659493747819N00156600WA0000001258
B1700043747772N00156597WA0000001261
B1700193747719N00156582WA0000001251
B1700343747666N00156566WA0000001244
B1700493747613N00156549WA0000001237
B1701043747565N00156536WA0000001226
B1701193747514N00156523WA0000001212
B1701343747475N00156502WA0000001202
B1701493747426N00156490WA0000001184
B1702043747368N00156499WA0000001169
B1702193747314N00156515WA0000001148
B1702343747254N00156538WA0000001127
B1702493747192N00156575WA0000001105
B1703043747139N00156618WA0000001072
B1703193747082N00156672WA0000001052
B1703343747020N00156732WA0000001025
B1703493746956N00156810WA0000001004
B1704043746896N00156868WA0000001003
B1704193746837N00156897WA0000001012
B1704343746779N00156936WA0000001025
B1704493746733N00156985WA0000001032
B1705043746679N00157035WA0000001024
B1705193746638N00157046WA0000001029
B1705343746614N00157091WA0000001039
B1705493746625N00157074WA0000001045
B1706043746620N00157093WA0000001046
B1706193746612N00157086WA0000001052
B1706343746638N00157062WA0000001061
B1706493746628N00157095WA0000001061
B1707043746629N00157084WA0000001081
B1707193746627N00157075WA0000001088
B1707343746605N00157064WA0000001103
B1707493746574N00157071WA0000001106
B1708043746539N00157088WA0000001101
B1708193746500N00157091WA0000001104
B1708343746458N00157099WA0000001111
B1708493746415N00157104WA0000001120
B1709043746372N00157102WA0000001135
B1709193746318N00157102WA0000001161
B1709343746284N00157094WA0000001188
B1709493746239N00157104WA0000001178
B1710043746193N00157123WA0000001162
B1710193746143N00157160WA0000001148
B1710343746093N00157209WA0000001149
B1710493746055N00157264WA0000001152
B1711043746021N00157324WA0000001172
B1711193745989N00157392WA0000001202
B1711343745963N00157477WA0000001222
B1711493745944N00157579WA0000001247
B1712043745988N00157554WA0000001268
B1712193746050N00157532WA0000001293
B1712343746030N00157562WA0000001314
B1712493746004N00157587WA0000001327
B1713043745982N00157578WA0000001347
B1713193745960N00157567WA0000001365
B1713343745926N00157585WA0000001376
B1713493745979N00157601WA0000001390
B1714043745970N00157582WA0000001404
B1714193746002N00157656WA0000001416
B1714343746026N00157638WA0000001428
B1714493745999N00157676WA0000001436
B1715043746037N00157683WA0000001449
B1715193746036N00157767WA0000001464
B1715343746009N00157778WA0000001494
B1715493746008N00157820WA0000001504
B1716043746043N00157801WA0000001516
B1716193746024N00157775WA0000001519
B1716343745989N00157757WA0000001503
B1716493745935N00157745WA0000001487
B1717043745888N00157744WA0000001474
B1717193745837N00157744WA0000001467
B1717343745793N00157734WA0000001459
B1717493745742N00157743WA0000001457
B1718043745696N00157754WA0000001447
B1718193745645N00157768WA0000001439
B1718343745582N00157785WA0000001439
B1718493745526N00157790WA0000001433
B1719043745463N00157793WA0000001420
B1719193745401N00157803WA0000001400
B1719343745340N00157810WA0000001393
B1719493745277N00157817WA0000001378
B1720043745210N00157826WA0000001367
B1720193745153N00157822WA0000001347
B1720343745090N00157833WA0000001331
B1720493745030N00157851WA0000001317
B1721043744963N00157881WA0000001295
B1721193744903N00157936WA0000001269
B1721343744846N00157997WA0000001244
B1721493744795N00158086WA0000001218
B1722043744759N00158183WA0000001191
B1722193744728N00158286WA0000001184
B1722343744699N00158387WA0000001162
B1722493744681N00158496WA0000001149
B1723043744702N00158597WA0000001154
B1723193744770N00158603WA0000001146
B1723343744743N00158591WA0000001135
B1723493744707N00158577WA0000001126
B1724043744672N00158569WA0000001129
B1724193744640N00158563WA0000001125
B1724343744607N00158571WA0000001123
B1724493744657N00158557WA0000001125
B1725043744747N00158586WA0000001121
B1725193744751N00158573WA0000001113
B1725343744712N00158550WA0000001102
B1725493744735N00158522WA0000001090
B1726043744836N00158548WA0000001080
B1726193744931N00158559WA0000001063
B1726343745008N00158509WA0000001043
B1726493745080N00158461WA0000001040
B1727043745145N00158416WA0000001035
B1727193745211N00158377WA0000001014
B1727343745280N00158330WA0000001007
B1727493745353N00158293WA0000000992
B1728043745419N00158276WA0000000998
B1728193745453N00158236WA0000001007
B1728343745481N00158179WA0000001012
B1728493745477N00158183WA0000001018
B1729043745456N00158233WA0000001036
B1729193745479N00158214WA0000001059
B1729343745461N00158248WA0000001076
B1729493745468N00158267WA0000001097
B1730043745499N00158248WA0000001108
B1730193745485N00158261WA0000001116
B1730343745501N00158215WA0000001123
B1730493745517N00158163WA0000001136
B1731043745568N00158189WA0000001141
B1731193745551N00158175WA0000001146
B1731343745556N00158139WA0000001150
B1731493745563N00158093WA0000001159
B1732043745591N00158122WA0000001164
B1732193745598N00158086WA0000001171
B1732343745614N00158044WA0000001161
B1732493745626N00157985WA0000001150
B1733043745655N00157917WA0000001147
B1733193745666N00157866WA0000001160
B1733343745700N00157878WA0000001173
B1733493745712N00157819WA0000001173
B1734043745749N00157761WA0000001166
B1734193745771N00157695WA0000001180
B1734343745799N00157644WA0000001184
B1734493745841N00157598WA0000001184
B1735043745897N00157555WA0000001176
B1735193745955N00157520WA0000001191
B1735343746031N00157486WA0000001208
B1735493746001N00157511WA0000001225
B1736043745962N00157566WA0000001245
B1736193745982N00157528WA0000001262
B1736343746028N00157546WA0000001271
B1736493745999N00157589WA0000001281
B1737043745974N00157590WA0000001287
B1737193745939N00157643WA0000001292
B1737343745921N00157636WA0000001298
B1737493745996N00157657WA0000001308
B1738043746006N00157655WA0000001315
B1738193746023N00157619WA0000001327
B1738343746078N00157634WA0000001340
B1738493746126N00157664WA0000001346
B1739043746100N00157692WA0000001355
B1739193746083N00157768WA0000001352
B1739343746060N00157761WA0000001359
B1739493746039N00157742WA0000001356
B1740043746014N00157722WA0000001349
B1740193745977N00157726WA0000001347
B1740343745952N00157712WA0000001334
B1740493745918N00157707WA0000001337
B1741043745893N00157702WA0000001333
B1741193745882N00157680WA0000001328
B1741343745868N00157656WA0000001322
B1741493745851N00157628WA0000001311
B1742043745829N00157601WA0000001300
B1742193745814N00157566WA0000001286
B1742343745789N00157605WA0000001282
B1742493745812N00157721WA0000001284
B1743043745890N00157799WA0000001285
B1743193745931N00157759WA0000001280
B1743343745927N00157708WA0000001274
B1743493745942N00157653WA0000001271
B1744043745979N00157610WA0000001270
B1744193745993N00157581WA0000001268
B1744343745976N00157580WA0000001269
B1744493745998N00157583WA0000001278
B1745043745979N00157625WA0000001281
B1745193746009N00157577WA0000001285
B1745343745980N00157622WA0000001292
B1745493745996N00157579WA0000001300
B1746043745976N00157596WA0000001300
B1746193745998N00157557WA0000001302
B1746343745964N00157608WA0000001303
B1746493745969N00157579WA0000001301
B1747043745965N00157670WA0000001295
B1747193745926N00157710WA0000001302
B1747343745884N00157734WA0000001301
B1747493745854N00157719WA0000001294
B1748043745825N00157705WA0000001282
B1748193745822N00157684WA0000001268
B1748343745858N00157628WA0000001255
B1748493745932N00157597WA0000001249
B1749043745963N00157570WA0000001253
B1749193745949N00157570WA0000001257
B1749343745955N00157562WA0000001266
B1749493745929N00157569WA0000001273
B1750043745915N00157529WA0000001281
B1750193745903N00157482WA0000001294
B1750343745896N00157434WA0000001293
B1750493745877N00157398WA0000001287
B1751043745878N00157358WA0000001284
B1751193745846N00157414WA0000001286
B1751343745875N00157382WA0000001296
B1751493745886N00157446WA0000001309
B1752043745929N00157493WA0000001315
B1752193745885N00157522WA0000001328
B1752343745845N00157533WA0000001353
B1752493745855N00157518WA0000001365
B1753043745911N00157609WA0000001381
B1753193745890N00157614WA0000001399
B1753343745965N00157668WA0000001409
B1753493745948N00157694WA0000001427
B1754043745981N00157775WA0000001445
B1754193746005N00157762WA0000001452
B1754343746019N00157860WA0000001465
B1754493745978N00157883WA0000001466
B1755043745943N00157873WA0000001457
B1755193745910N00157860WA0000001451
B1755343745880N00157840WA0000001445
B1755493745849N00157816WA0000001436
B1756043745811N00157804WA0000001427
B1756193745769N00157800WA0000001419
B1756343745732N00157791WA0000001410
B1756493745702N00157775WA0000001400
B1757043745672N00157761WA0000001394
B1757193745636N00157764WA0000001409
B1757343745593N00157777WA0000001414
B1757493745550N00157785WA0000001404
B1758043745506N00157796WA0000001407
B1758193745464N00157801WA0000001411
B1758343745420N00157805WA0000001404
B1758493745375N00157811WA0000001392
B1759043745331N00157826WA0000001376
B1759193745287N00157849WA0000001361
B1759343745241N00157872WA0000001343
B1759493745194N00157891WA0000001324
B1800043745155N00157873WA0000001309
B1800193745188N00157802WA0000001295
B1800343745276N00157760WA0000001275
B1800493745373N00157729WA0000001253
B1801043745467N00157694WA0000001232
B1801193745553N00157649WA0000001226
B1801343745641N00157609WA0000001225
B1801493745729N00157571WA0000001230
B1802043745824N00157566WA0000001231
B1802193745911N00157554WA0000001239
B1802343745987N00157525WA0000001259
B1802493745985N00157527WA0000001273
B1803043745951N00157566WA0000001287
B1803193746027N00157550WA0000001302
B1803343746003N00157557WA0000001308
B1803493746033N00157548WA0000001324
B1804043746039N00157537WA0000001333
B1804193746003N00157561WA0000001343
B1804343746059N00157531WA0000001351
B1804493746080N00157588WA0000001367
B1805043746091N00157614WA0000001373
B1805193746116N00157587WA0000001373
B1805343746071N00157590WA0000001372
B1805493746034N00157575WA0000001372
B1806043746004N00157536WA0000001364
B1806193745960N00157518WA0000001377
B1806343745950N00157467WA0000001378
B1806493745959N00157471WA0000001388
B1807043745993N00157475WA0000001402
B1807193746024N00157476WA0000001415
B1807343746075N00157499WA0000001425
B1807493746087N00157538WA0000001419
B1808043746169N00157513WA0000001425
B1808193746177N00157570WA0000001425
B1808343746260N00157560WA0000001425
B1808493746232N00157584WA0000001420
B1809043746307N00157644WA0000001415
B1809193746350N00157588WA0000001406
B1809343746376N00157527WA0000001402
B1809493746395N00157466WA0000001401
B1810043746426N00157389WA0000001393
B1810193746463N00157308WA0000001388
B1810343746490N00157226WA0000001376
B1810493746505N00157149WA0000001369
B1811043746527N00157079WA0000001366
B1811193746536N00157009WA0000001353
B1811343746540N00156941WA0000001337
B1811493746542N00156876WA0000001326
B1812043746548N00156808WA0000001306
B1812193746577N00156731WA0000001292
B1812343746633N00156653WA0000001283
B1812493746702N00156588WA0000001279
B1813043746771N00156525WA0000001270
B1813193746830N00156461WA0000001262
B1813343746921N00156417WA0000001240
B1813493747025N00156359WA0000001216
B1814043747135N00156336WA0000001201
B1814193747247N00156365WA0000001179
B1814343747352N00156376WA0000001166
B1814493747422N00156327WA0000001147
B1815043747512N00156304WA0000001129
B1815193747631N00156340WA0000001118
B1815343747748N00156393WA0000001108
B1815493747861N00156465WA0000001104
B1816043747961N00156519WA0000001109
B1816193748053N00156576WA0000001111
B1816343748153N00156639WA0000001117
B1816493748254N00156714WA0000001121
B1817043748356N00156747WA0000001129
B1817193748443N00156730WA0000001153
B1817343748474N00156732WA0000001171
B1817493748458N00156812WA0000001195
B1818043748432N00156903WA0000001209
B1818193748440N00156870WA0000001227
B1818343748468N00156832WA0000001253
B1818493748440N00156864WA0000001265
B1819043748430N00156838WA0000001269
B1819193748423N00156788WA0000001272
B1819343748410N00156742WA0000001284
B1819493748418N00156788WA0000001269
B1820043748420N00156762WA0000001272
B1820193748392N00156811WA0000001275
B1820343748370N00156828WA0000001272
B1820493748422N00156782WA0000001270
B1821043748445N00156722WA0000001271
B1821193748456N00156662WA0000001272
B1821343748472N00156599WA0000001266
B1821493748489N00156535WA0000001261
B1822043748522N00156465WA0000001257
B1822193748571N00156394WA0000001246
B1822343748641N00156327WA0000001234
B1822493748719N00156264WA0000001221
B1823043748802N00156206WA0000001209
B1823193748901N00156163WA0000001201
B1823343749001N00156122WA0000001194
B1823493749102N00156085WA0000001188
B1824043749207N00156062WA0000001180
B1824193749316N00156043WA0000001170
B1824343749422N00156024WA0000001160
B1824493749531N00156009WA0000001148
B1825043749646N00156004WA0000001142
B1825193749758N00155998WA0000001134
B1825343749869N00155994WA0000001122
B1825493749977N00156027WA0000001117
B1826043750074N00156104WA0000001120
B1826193750142N00156218WA0000001123
B1826343750229N00156317WA0000001123
B1826493750300N00156310WA0000001131
B1827043750365N00156279WA0000001136
B1827193750330N00156292WA0000001147
B1827343750302N00156284WA0000001158
B1827493750272N00156274WA0000001162
B1828043750244N00156259WA0000001164
B1828193750216N00156238WA0000001161
B1828333750184N00156221WA0000001161
B1828483750153N00156202WA0000001159
B1829033750116N00156184WA0000001156
B1829183750080N00156164WA0000001153
B1829333750034N00156151WA0000001153
B1829483749997N00156139WA0000001151
B1830033749962N00156130WA0000001147
B1830183749931N00156116WA0000001141
B1830333749900N00156103WA0000001136
B1830483749870N00156091WA0000001128
B1831033749830N00156111WA0000001120
B1831183749792N00156120WA0000001109
B1831333749752N00156134WA0000001098
B1831483749710N00156154WA0000001089
B1832043749673N00156215WA0000001083
B1832193749638N00156259WA0000001076
B1832343749605N00156274WA0000001072
B1832493749599N00156237WA0000001069
B1833043749568N00156228WA0000001070
B1833193749542N00156189WA0000001067
B1833343749546N00156140WA0000001064
B1833493749552N00156101WA0000001028
B1834043749572N00156076WA0000001013
B1834193749580N00156118WA0000000953
B1834343749587N00156236WA0000000947
B1834493749564N00156327WA0000000963
B1835043749564N00156319WA0000000975
B1835193749554N00156266WA0000000987
B1835343749560N00156198WA0000000995
B1835493749575N00156135WA0000000985
B1836043749587N00156069WA0000000966
B1836193749589N00156003WA0000000960
B1836343749589N00155935WA0000000953
B1836493749597N00155871WA0000000936
B1837043749588N00155821WA0000000907
B1837193749584N00155766WA0000000883
B1837343749572N00155719WA0000000859
B1837493749559N00155683WA0000000836
B1838043749542N00155651WA0000000809
B1838193749533N00155612WA0000000783
B1838343749518N00155576WA0000000767
B1838493749506N00155549WA0000000755
B1839043749495N00155529WA0000000743
B1839193749485N00155510WA0000000732
B1839343749462N00155483WA0000000710
B1839493749441N00155445WA0000000690
LXCG     VERSION:6.4
GAA23DE95B11FDFC3971529F0CF1F6FB3DCB924DDDEFC148537CD6AB91927420B90F2D
G3D7431BE03756A25FAB5135C9069D5277F1E15E5089D08796BA9C5BA0E211EDC97C
GA6B1B1F153D98920AC9700DE6F820DEABA156F516AD790E0B3DADD3452FAAE7A19F
G235AF7B520F6BE5C4703BF1D4BB3EDB26F8B11F7528C9F34E9915B57A47A9